createdAt,value
2018-11-20T00:01:48.066Z,48.02
2018-11-20T00:04:33.843Z,52.25
2018-11-20T00:07:21.031Z,65.83
2018-11-20T00:10:18.558Z,60.38
2018-11-20T00:13:08.030Z,48.68
2018-11-20T00:15:55.198Z,53.55
2018-11-20T00:18:42.492Z,54.42
2018-11-20T00:21:33.940Z,60.23
2018-11-20T00:24:22.510Z,55.70
2018-11-20T00:27:26.024Z,56.63
2018-11-20T00:30:09.656Z,58.78
2018-11-20T00:32:55.608Z,55.30
2018-11-20T00:35:33.583Z,53.85
2018-11-20T00:38:21.076Z,55.55
2018-11-20T00:41:08.319Z,55.15
2018-11-20T00:43:55.597Z,55.88
2018-11-20T00:46:44.059Z,53.42
2018-11-20T00:49:28.763Z,55.52
2018-11-20T00:52:35.584Z,57.48
2018-11-20T00:55:17.121Z,38.10
2018-11-20T00:58:11.516Z,51.75
2018-11-20T01:01:00.003Z,53.40
2018-11-20T01:03:57.992Z,48.17
2018-11-20T01:06:49.144Z,61.73
2018-11-20T01:09:46.950Z,51.40
2018-11-20T01:12:31.217Z,54.63
2018-11-20T01:15:14.893Z,49.38
2018-11-20T01:17:55.376Z,54.58
2018-11-20T01:20:42.459Z,55.43
2018-11-20T01:23:28.304Z,57.03
2018-11-20T01:26:19.490Z,47.40
2018-11-20T01:29:10.457Z,50.98
2018-11-20T01:32:01.487Z,52.00
2018-11-20T01:34:46.560Z,50.05
2018-11-20T01:37:35.063Z,50.88
2018-11-20T01:40:29.602Z,55.40
2018-11-20T01:43:17.287Z,50.15
2018-11-20T01:46:18.935Z,55.28
2018-11-20T01:49:10.000Z,50.38
2018-11-20T01:51:56.221Z,54.00
2018-11-20T01:54:43.422Z,56.20
2018-11-20T01:57:50.110Z,52.40
2018-11-20T02:00:38.698Z,49.25
2018-11-20T02:03:25.786Z,44.53
2018-11-20T02:06:09.049Z,47.70
2018-11-20T02:09:03.692Z,47.70
2018-11-20T02:11:54.215Z,50.28
2018-11-20T02:14:49.908Z,50.50
2018-11-20T02:17:50.108Z,55.65
2018-11-20T02:20:37.608Z,56.10
2018-11-20T02:23:31.105Z,46.65
2018-11-20T02:26:18.433Z,54.33
2018-11-20T02:29:06.915Z,51.77
2018-11-20T02:31:49.055Z,60.15
2018-11-20T02:34:43.103Z,52.27
2018-11-20T02:37:31.238Z,48.38
2018-11-20T02:40:38.023Z,52.48
2018-11-20T02:43:34.530Z,48.33
2018-11-20T02:46:20.510Z,47.40
2018-11-20T02:49:21.946Z,57.48
2018-11-20T02:52:08.575Z,45.85
2018-11-20T02:54:55.847Z,57.60
2018-11-20T02:57:50.240Z,52.98
2018-11-20T03:00:42.991Z,47.65
2018-11-20T03:03:30.253Z,57.40
2018-11-20T03:06:17.435Z,54.08
2018-11-20T03:09:04.595Z,54.10
2018-11-20T03:11:51.947Z,55.50
2018-11-20T03:14:32.090Z,52.78
2018-11-20T03:17:26.547Z,55.92
2018-11-20T03:20:13.651Z,58.05
2018-11-20T03:23:10.798Z,54.65
2018-11-20T03:26:04.964Z,62.40
2018-11-20T03:29:24.987Z,47.48
2018-11-20T03:32:11.871Z,52.38
2018-11-20T03:35:00.381Z,59.90
2018-11-20T03:37:53.607Z,53.28
2018-11-20T03:40:31.528Z,52.78
2018-11-20T03:43:20.098Z,50.23
2018-11-20T03:46:26.746Z,51.60
2018-11-20T03:49:23.974Z,55.35
2018-11-20T03:52:21.239Z,50.55
2018-11-20T03:55:08.300Z,53.73
2018-11-20T03:58:15.063Z,50.80
2018-11-20T04:01:09.355Z,52.17
2018-11-20T04:03:56.660Z,56.95
2018-11-20T04:06:47.817Z,51.05
2018-11-20T04:09:30.422Z,53.95
2018-11-20T04:12:23.340Z,62.33
2018-11-20T04:15:24.037Z,56.35
2018-11-20T04:18:12.140Z,52.25
2018-11-20T04:21:15.908Z,57.75
2018-11-20T04:24:13.531Z,55.50
2018-11-20T04:27:02.000Z,47.58
2018-11-20T04:29:50.443Z,44.80
2018-11-20T04:32:41.762Z,55.60
2018-11-20T04:35:31.460Z,52.08
2018-11-20T04:38:37.809Z,43.25
2018-11-20T04:41:33.604Z,40.75
2018-11-20T04:44:16.640Z,46.02
2018-11-20T04:47:05.883Z,43.38
2018-11-20T04:49:56.015Z,46.45
2018-11-20T04:52:59.394Z,46.55
2018-11-20T04:55:45.336Z,48.08
2018-11-20T04:58:32.587Z,44.05
2018-11-20T05:01:21.072Z,53.05
2018-11-20T05:04:15.334Z,44.98
2018-11-20T05:07:02.294Z,49.35
2018-11-20T05:09:48.990Z,51.95
2018-11-20T05:12:43.566Z,57.90
2018-11-20T05:15:30.495Z,46.48
2018-11-20T05:18:22.014Z,49.60
2018-11-20T05:21:09.363Z,44.55
2018-11-20T05:23:56.470Z,39.65
2018-11-20T05:26:47.693Z,41.37
2018-11-20T05:29:38.958Z,45.00
2018-11-20T05:32:19.153Z,38.15
2018-11-20T05:35:13.321Z,46.05
2018-11-20T05:38:00.392Z,40.23
2018-11-20T05:40:47.665Z,39.95
2018-11-20T05:43:42.284Z,46.50
2018-11-20T05:46:30.556Z,49.67
2018-11-20T05:49:28.200Z,49.50
2018-11-20T05:52:15.313Z,47.50
2018-11-20T05:55:06.790Z,64.80
2018-11-20T05:57:58.269Z,64.03
2018-11-20T06:00:45.554Z,58.63
2018-11-20T06:03:32.822Z,55.17
2018-11-20T06:06:20.104Z,61.00
2018-11-20T06:09:07.446Z,58.60
2018-11-20T06:11:58.451Z,58.87
2018-11-20T06:14:45.752Z,66.37
2018-11-20T06:17:32.797Z,76.15
2018-11-20T06:20:27.185Z,66.30
2018-11-20T06:23:14.190Z,64.12
2018-11-20T06:26:01.522Z,57.60
2018-11-20T06:28:50.210Z,63.52
2018-11-20T06:31:30.299Z,58.80
2018-11-20T06:34:17.582Z,60.85
2018-11-20T06:37:05.519Z,53.78
2018-11-20T06:39:48.678Z,51.35
2018-11-20T06:42:30.749Z,61.42
2018-11-20T06:45:31.116Z,62.30
2018-11-20T06:48:25.324Z,59.03
2018-11-20T06:51:01.209Z,61.35
2018-11-20T06:53:50.036Z,64.07
2018-11-20T06:56:38.489Z,47.40
2018-11-20T06:59:34.789Z,55.15
2018-11-20T07:02:21.998Z,59.90
2018-11-20T07:05:19.639Z,66.05
2018-11-20T07:08:06.779Z,57.85
2018-11-20T07:10:53.724Z,53.78
2018-11-20T07:13:46.172Z,57.98
2018-11-20T07:16:42.907Z,58.92
2018-11-20T07:19:34.231Z,55.55
2018-11-20T07:22:31.709Z,57.55
2018-11-20T07:25:12.820Z,57.33
2018-11-20T07:28:07.033Z,62.75
2018-11-20T07:30:54.372Z,58.83
2018-11-20T07:33:48.786Z,56.23
2018-11-20T07:36:36.090Z,56.48
2018-11-20T07:39:24.751Z,49.63
2018-11-20T07:42:16.202Z,52.58
2018-11-20T07:45:03.682Z,57.13
2018-11-20T07:47:50.675Z,53.87
2018-11-20T07:50:37.829Z,50.63
2018-11-20T07:53:24.742Z,51.48
2018-11-20T07:56:19.410Z,55.17
2018-11-20T07:59:19.926Z,62.30
2018-11-20T08:02:07.493Z,60.17
2018-11-20T08:04:49.950Z,56.92
2018-11-20T08:07:49.974Z,61.77
2018-11-20T08:10:41.336Z,63.13
2018-11-20T08:13:28.602Z,64.37
2018-11-20T08:16:15.628Z,68.25
2018-11-20T08:19:10.185Z,66.62
2018-11-20T08:22:13.602Z,68.12
2018-11-20T08:25:14.108Z,72.32
2018-11-20T08:28:01.295Z,70.78
2018-11-20T08:30:49.744Z,70.72
2018-11-20T08:33:44.136Z,68.25
2018-11-20T08:36:35.197Z,64.95
2018-11-20T08:39:34.666Z,65.87
2018-11-20T08:42:16.401Z,70.75
2018-11-20T08:45:11.330Z,61.53
2018-11-20T08:48:07.514Z,60.35
2018-11-20T08:50:54.453Z,66.50
2018-11-20T08:54:01.110Z,73.78
2018-11-20T08:56:48.191Z,59.58
2018-11-20T08:59:48.782Z,63.20
2018-11-20T09:02:43.236Z,62.50
2018-11-20T09:05:49.767Z,69.40
2018-11-20T09:08:39.278Z,64.92
2018-11-20T09:11:30.562Z,60.73
2018-11-20T09:14:24.791Z,78.40
2018-11-20T09:17:16.182Z,72.80
2018-11-20T09:20:13.772Z,70.67
2018-11-20T09:23:13.948Z,51.28
2018-11-20T09:26:00.839Z,69.62
2018-11-20T09:28:48.169Z,54.67
2018-11-20T09:31:45.387Z,59.85
2018-11-20T09:34:32.453Z,56.25
2018-11-20T09:37:09.248Z,63.63
2018-11-20T09:40:28.905Z,72.70
2018-11-20T09:43:14.082Z,65.87
2018-11-20T09:46:25.901Z,55.23
2018-11-20T09:49:15.314Z,66.60
2018-11-20T09:52:18.894Z,56.33
2018-11-20T09:55:13.128Z,62.38
2018-11-20T09:58:07.580Z,49.88
2018-11-20T10:00:56.055Z,61.90
2018-11-20T10:03:40.340Z,59.73
2018-11-20T10:06:27.590Z,58.52
2018-11-20T10:09:18.938Z,63.58
2018-11-20T10:12:13.108Z,65.90
2018-11-20T10:14:54.763Z,60.70
2018-11-20T10:17:48.004Z,60.85
2018-11-20T10:20:35.037Z,52.62
2018-11-20T10:23:21.519Z,59.20
2018-11-20T10:26:08.780Z,59.25
2018-11-20T10:28:55.942Z,55.30
2018-11-20T10:32:02.702Z,57.38
2018-11-20T10:34:48.901Z,60.45
2018-11-20T10:37:29.179Z,60.35
2018-11-20T10:40:17.665Z,51.00
2018-11-20T10:43:04.739Z,58.75
2018-11-20T10:45:56.058Z,87.10
2018-11-20T10:48:56.578Z,64.95
2018-11-20T10:51:45.429Z,53.10
2018-11-20T10:54:32.245Z,55.98
2018-11-20T10:57:19.541Z,57.08
2018-11-20T11:00:03.402Z,60.90
2018-11-20T11:02:50.444Z,46.85
2018-11-20T11:05:46.951Z,52.33
2018-11-20T11:08:34.145Z,55.15
2018-11-20T11:11:28.782Z,55.30
2018-11-20T11:14:20.437Z,53.35
2018-11-20T11:17:11.584Z,55.10
2018-11-20T11:19:59.076Z,57.27
2018-11-20T11:22:46.188Z,52.83
2018-11-20T11:25:49.885Z,54.55
2018-11-20T11:28:39.363Z,62.25
2018-11-20T11:31:37.041Z,57.53
2018-11-20T11:34:37.693Z,58.52
2018-11-20T11:37:26.153Z,47.53
2018-11-20T11:40:05.241Z,56.92
2018-11-20T11:42:52.183Z,55.95
2018-11-20T11:45:43.481Z,65.50
2018-11-20T11:48:43.340Z,49.45
2018-11-20T11:51:40.815Z,63.42
2018-11-20T11:54:29.360Z,62.70
2018-11-20T11:57:10.077Z,56.42
2018-11-20T12:00:13.677Z,57.27
2018-11-20T12:05:48.702Z,62.98
2018-11-20T12:08:30.700Z,63.58
2018-11-20T12:11:28.086Z,47.60
2018-11-20T12:14:15.793Z,56.20
2018-11-20T12:17:03.488Z,57.35
2018-11-20T12:20:00.963Z,52.75
2018-11-20T12:22:52.382Z,55.00
2018-11-20T12:25:40.835Z,53.87
2018-11-20T12:28:20.921Z,44.90
2018-11-20T12:31:28.715Z,60.75
2018-11-20T12:34:14.363Z,56.13
2018-11-20T12:37:04.458Z,65.45
2018-11-20T12:39:43.299Z,54.30
2018-11-20T12:42:30.495Z,48.70
2018-11-20T12:45:34.178Z,54.13
2018-11-20T12:48:31.433Z,59.53
2018-11-20T12:51:18.513Z,58.78
2018-11-20T12:54:06.382Z,56.20
2018-11-20T12:57:00.998Z,61.45
2018-11-20T12:59:50.392Z,61.58
2018-11-20T13:02:40.058Z,65.00
2018-11-20T13:05:25.114Z,65.45
2018-11-20T13:08:13.710Z,69.50
2018-11-20T13:11:08.150Z,56.98
2018-11-20T13:14:02.261Z,61.08
2018-11-20T13:16:49.446Z,62.27
2018-11-20T13:19:50.120Z,67.90
2018-11-20T13:22:33.555Z,62.90
2018-11-20T13:25:25.639Z,58.63
2018-11-20T13:28:14.859Z,75.30
2018-11-20T13:31:06.210Z,68.55
2018-11-20T13:33:47.981Z,66.50
2018-11-20T13:36:44.582Z,61.80
2018-11-20T13:39:35.352Z,66.35
2018-11-20T13:42:24.746Z,72.47
2018-11-20T13:45:18.939Z,68.33
2018-11-20T13:48:07.915Z,57.48
2018-11-20T13:51:08.675Z,68.83
2018-11-20T13:53:57.306Z,73.20
2018-11-20T13:56:46.108Z,70.10
2018-11-20T13:59:34.430Z,75.28
2018-11-20T14:02:28.482Z,76.92
2018-11-20T14:05:16.927Z,66.72
2018-11-20T14:07:49.569Z,68.57
2018-11-20T14:10:53.119Z,66.20
2018-11-20T14:13:41.633Z,59.48
2018-11-20T14:16:28.513Z,66.05
2018-11-20T14:19:26.501Z,71.02
2018-11-20T14:22:17.644Z,65.65
2018-11-20T14:25:10.975Z,68.50
2018-11-20T14:27:58.510Z,69.67
2018-11-20T14:30:45.376Z,66.10
2018-11-20T14:33:32.286Z,71.95
2018-11-20T14:36:23.781Z,68.07
2018-11-20T14:39:12.306Z,63.95
2018-11-20T14:42:15.983Z,61.80
2018-11-20T14:45:10.014Z,68.07
2018-11-20T14:47:58.478Z,58.95
2018-11-20T14:50:45.220Z,55.95
2018-11-20T14:53:33.048Z,63.08
2018-11-20T14:56:18.425Z,63.55
2018-11-20T14:59:07.522Z,60.38
2018-11-20T15:01:54.755Z,61.65
2018-11-20T15:04:55.176Z,61.28
2018-11-20T15:07:43.611Z,60.00
2018-11-20T15:10:33.532Z,63.90
2018-11-20T15:13:32.901Z,65.47
2018-11-20T15:16:33.372Z,64.32
2018-11-20T15:19:27.627Z,63.60
2018-11-20T15:22:16.124Z,63.40
2018-11-20T15:25:04.650Z,56.58
2018-11-20T15:27:53.086Z,61.95
2018-11-20T15:30:41.254Z,66.25
2018-11-20T15:33:32.443Z,63.23
2018-11-20T15:36:19.614Z,69.90
2018-11-20T15:39:07.257Z,65.12
2018-11-20T15:41:50.068Z,62.95
2018-11-20T15:44:41.340Z,76.47
2018-11-20T15:47:45.989Z,67.97
2018-11-20T15:50:33.103Z,75.72
2018-11-20T15:53:24.447Z,65.05
2018-11-20T15:56:11.317Z,79.20
2018-11-20T15:59:00.790Z,69.92
2018-11-20T16:01:52.333Z,70.03
2018-11-20T16:04:43.687Z,70.42
2018-11-20T16:07:30.818Z,68.70
2018-11-20T16:10:25.602Z,74.05
2018-11-20T16:13:01.563Z,66.30
2018-11-20T16:15:50.751Z,79.55
2018-11-20T16:18:48.173Z,69.92
2018-11-20T16:21:39.623Z,68.87
2018-11-20T16:24:28.733Z,69.87
2018-11-20T16:27:16.529Z,66.25
2018-11-20T16:30:03.547Z,70.17
2018-11-20T16:32:50.818Z,74.00
2018-11-20T16:35:41.815Z,70.37
2018-11-20T16:38:33.566Z,65.92
2018-11-20T16:41:24.196Z,71.90
2018-11-20T16:44:11.497Z,67.55
2018-11-20T16:46:58.546Z,68.07
2018-11-20T16:49:59.160Z,70.30
2018-11-20T16:52:53.786Z,71.82
2018-11-20T16:55:49.029Z,73.47
2018-11-20T16:58:43.092Z,70.08
2018-11-20T17:01:30.236Z,67.92
2018-11-20T17:04:18.689Z,62.10
2018-11-20T17:07:05.756Z,64.97
2018-11-20T17:09:53.017Z,62.45
2018-11-20T17:12:50.549Z,65.78
2018-11-20T17:15:30.195Z,62.08
2018-11-20T17:18:16.227Z,69.27
2018-11-20T17:21:10.781Z,64.53
2018-11-20T17:23:57.817Z,69.22
2018-11-20T17:26:49.223Z,65.10
2018-11-20T17:29:40.384Z,61.15
2018-11-20T17:32:27.644Z,67.78
2018-11-20T17:35:28.326Z,60.25
2018-11-20T17:38:15.143Z,62.55
2018-11-20T17:41:09.198Z,64.25
2018-11-20T17:43:56.383Z,69.72
2018-11-20T17:47:03.385Z,68.45
2018-11-20T17:49:43.641Z,68.07
2018-11-20T17:52:25.327Z,68.57
2018-11-20T17:55:13.765Z,57.08
2018-11-20T17:57:57.722Z,65.42
2018-11-20T18:00:39.381Z,68.97
2018-11-20T18:03:18.305Z,62.13
2018-11-20T18:06:01.119Z,58.40
2018-11-20T18:08:52.627Z,60.85
2018-11-20T18:11:53.271Z,61.10
2018-11-20T18:14:55.021Z,69.05
2018-11-20T18:17:42.507Z,68.12
2018-11-20T18:20:28.415Z,59.88
2018-11-20T18:23:20.101Z,68.95
2018-11-20T18:26:08.618Z,60.23
2018-11-20T18:29:16.442Z,62.48
2018-11-20T18:32:06.725Z,67.15
2018-11-20T18:34:56.993Z,68.67
2018-11-20T18:39:00.269Z,64.70
2018-11-20T18:41:47.037Z,66.92
2018-11-20T18:44:43.499Z,59.67
2018-11-20T18:47:33.777Z,71.42
2018-11-20T18:50:20.244Z,65.52
2018-11-20T18:53:19.948Z,66.40
2018-11-20T18:56:06.018Z,68.00
2018-11-20T18:58:53.825Z,62.35
2018-11-20T19:01:40.440Z,60.15
2018-11-20T19:04:19.080Z,67.75
2018-11-20T19:07:08.198Z,62.03
2018-11-20T19:09:48.736Z,62.53
2018-11-20T19:12:35.101Z,62.95
2018-11-20T19:15:25.319Z,67.82
2018-11-20T19:18:06.492Z,64.35
2018-11-20T19:20:54.585Z,68.25
2018-11-20T19:23:54.592Z,56.50
2018-11-20T19:26:42.239Z,63.87
2018-11-20T19:29:22.068Z,59.00
2018-11-20T19:32:18.507Z,63.85
2018-11-20T19:35:21.391Z,75.15
2018-11-20T19:38:07.982Z,64.77
2018-11-20T19:40:55.263Z,61.37
2018-11-20T19:43:41.714Z,62.85
2018-11-20T19:46:28.424Z,64.72
2018-11-20T19:49:24.944Z,59.53
2018-11-20T19:52:13.310Z,68.60
2018-11-20T19:55:07.123Z,64.77
2018-11-20T19:57:54.769Z,64.95
2018-11-20T20:00:47.421Z,66.95
2018-11-20T20:03:34.694Z,68.15
2018-11-20T20:06:21.242Z,64.97
2018-11-20T20:09:14.703Z,66.28
2018-11-20T20:12:01.055Z,66.07
2018-11-20T20:14:48.693Z,72.42
2018-11-20T20:17:34.913Z,66.25
2018-11-20T20:20:34.350Z,61.73
2018-11-20T20:23:20.594Z,63.95
2018-11-20T20:26:13.943Z,64.62
2018-11-20T20:29:13.573Z,68.60
2018-11-20T20:32:02.433Z,59.00
2018-11-20T20:34:55.533Z,57.08
2018-11-20T20:37:41.804Z,59.08
2018-11-20T20:40:32.150Z,66.62
2018-11-20T20:43:19.782Z,60.92
2018-11-20T20:46:13.362Z,65.05
2018-11-20T20:49:05.194Z,67.35
2018-11-20T20:51:53.109Z,61.80
2018-11-20T20:54:53.039Z,65.47
2018-11-20T20:57:52.934Z,66.95
2018-11-20T21:00:55.721Z,70.95
2018-11-20T21:03:43.379Z,64.87
2018-11-20T21:06:29.565Z,70.00
2018-11-20T21:09:15.268Z,67.05
2018-11-20T21:12:01.511Z,64.12
2018-11-20T21:15:04.382Z,73.30
2018-11-20T21:18:04.886Z,69.82
2018-11-20T21:21:04.496Z,75.85
2018-11-20T21:23:42.238Z,69.62
2018-11-20T21:26:28.631Z,70.50
2018-11-20T21:29:18.862Z,69.30
2018-11-20T21:32:05.072Z,71.67
2018-11-20T21:34:55.435Z,78.00
2018-11-20T21:37:48.895Z,68.70
2018-11-20T21:40:35.352Z,72.82
2018-11-20T21:43:32.196Z,77.03
2018-11-20T21:46:35.157Z,68.95
2018-11-20T21:49:22.871Z,72.72
2018-11-20T21:52:16.275Z,74.27
2018-11-20T21:55:10.119Z,73.33
2018-11-20T21:58:00.931Z,79.53
2018-11-20T22:01:18.273Z,72.00
2018-11-20T22:04:17.884Z,73.35
2018-11-20T22:07:04.512Z,69.50
2018-11-20T22:09:50.736Z,71.97
2018-11-20T22:13:15.840Z,71.90
2018-11-20T22:16:09.368Z,70.97
2018-11-20T22:18:55.529Z,68.05
2018-11-20T22:21:45.853Z,70.17
2018-11-20T22:24:32.562Z,73.33
2018-11-20T22:27:35.364Z,74.25
2018-11-20T22:30:22.856Z,74.65
2018-11-20T22:33:25.559Z,65.15
2018-11-20T22:36:25.430Z,77.70
2018-11-20T22:39:18.846Z,75.03
2018-11-20T22:42:15.249Z,76.10
2018-11-20T22:45:09.783Z,78.02
2018-11-20T22:47:56.408Z,71.57
2018-11-20T22:50:42.999Z,70.87
2018-11-20T22:53:29.956Z,74.03
2018-11-20T22:56:17.612Z,78.00
2018-11-20T22:59:03.969Z,71.00
2018-11-20T23:02:06.594Z,69.00
2018-11-20T23:04:54.882Z,78.85
2018-11-20T23:07:41.061Z,77.80
2018-11-20T23:10:09.576Z,76.77
2018-11-20T23:12:38.095Z,71.72
2018-11-20T23:15:09.901Z,77.17
2018-11-20T23:17:38.411Z,72.12
2018-11-20T23:20:07.704Z,66.00
2018-11-20T23:22:36.814Z,69.03
2018-11-20T23:25:06.458Z,70.08
2018-11-20T23:27:34.955Z,67.12
2018-11-20T23:30:04.008Z,70.95
2018-11-20T23:32:33.386Z,80.72
2018-11-20T23:35:01.882Z,72.45
2018-11-20T23:37:30.390Z,71.85
2018-11-20T23:39:58.959Z,68.35
2018-11-20T23:42:27.472Z,74.97
2018-11-20T23:44:56.060Z,84.40
2018-11-20T23:47:24.572Z,74.65
2018-11-20T23:49:53.088Z,72.12
2018-11-20T23:52:22.164Z,79.22
2018-11-20T23:54:50.762Z,75.10
2018-11-20T23:57:19.295Z,84.55
2018-11-20T23:59:47.868Z,78.30
